Time;durP1;ratioP1;P1;durP2;ratioP2;P2;SDS_P1;SDS_P2;PMS_P1;PMS_P2;Temp;Humidity;BMP_temperature;BMP_pressure;BME280_temperature;BME280_humidity;BME280_pressure;Samples;Min_cycle;Max_cycle;Signal;HPM_P1;HPM_P2
2022/04/25 00:01:56;;;;;;;7.40;0.73;;;;;;;;;;5074786;28;20056;-60
2022/04/25 00:04:21;;;;;;;2.92;1.13;;;;;;;;;;5074529;28;20062;-61
2022/04/25 00:06:47;;;;;;;0.10;0.10;;;;;;;;;;5074393;28;20060;-61
2022/04/25 00:09:21;;;;;;;0.17;0.17;;;;;;;;;;5072542;28;20032;-62
2022/04/25 00:11:49;;;;;;;4.57;0.90;;;;;;;;;;5076508;28;20044;-61
2022/04/25 00:14:15;;;;;;;0.85;0.65;;;;;;;;;;5077209;28;20468;-62
2022/04/25 00:16:40;;;;;;;8.23;2.03;;;;;;;;;;5076580;28;20039;-61
2022/04/25 00:19:11;;;;;;;1.95;1.58;;;;;;;;;;5076569;28;20040;-62
2022/04/25 00:21:37;;;;;;;0.70;0.52;;;;;;;;;;5094669;28;20032;-62
2022/04/25 00:24:10;;;;;;;0.10;0.10;;;;;;;;;;5094685;28;20508;-61
2022/04/25 00:26:38;;;;;;;10.63;1.42;;;;;;;;;;5094741;28;20115;-62
2022/04/25 00:29:06;;;;;;;3.47;1.00;;;;;;;;;;5086236;28;20124;-61
2022/04/25 00:31:32;;;;;;;1.00;0.68;;;;;;;;;;5078634;28;20036;-61
2022/04/25 00:34:08;;;;;;;0.65;0.50;;;;;;;;;;5074204;28;20464;-60
2022/04/25 00:36:33;;;;;;;0.10;0.10;;;;;;;;;;5074390;28;20032;-61
2022/04/25 00:39:02;;;;;;;0.88;0.88;;;;;;;;;;5074211;28;20031;-61
2022/04/25 00:41:29;;;;;;;1.30;0.60;;;;;;;;;;5056820;28;20032;-61
2022/04/25 00:43:55;;;;;;;6.03;1.65;;;;;;;;;;5074117;28;20266;-61
2022/04/25 00:46:26;;;;;;;6.65;1.10;;;;;;;;;;5073947;28;20422;-61
2022/04/25 00:48:52;;;;;;;0.55;0.45;;;;;;;;;;5056127;28;20031;-60
2022/04/25 00:51:29;;;;;;;2.20;1.13;;;;;;;;;;5073795;28;20115;-61
2022/04/25 00:53:54;;;;;;;11.55;2.53;;;;;;;;;;5074072;28;20035;-60
2022/04/25 00:56:24;;;;;;;7.78;2.05;;;;;;;;;;5056705;28;20028;-60
2022/04/25 00:58:55;;;;;;;0.30;0.30;;;;;;;;;;5055790;28;20033;-61
2022/04/25 01:01:31;;;;;;;0.15;0.15;;;;;;;;;;5056007;28;20033;-61
2022/04/25 01:04:00;;;;;;;4.63;4.18;;;;;;;;;;5073975;28;20068;-61
2022/04/25 01:06:28;;;;;;;0.20;0.20;;;;;;;;;;5056250;28;20495;-61
2022/04/25 01:08:54;;;;;;;0.17;0.17;;;;;;;;;;5084082;28;20035;-61
2022/04/25 01:11:27;;;;;;;1.08;0.57;;;;;;;;;;5059823;28;20041;-61
2022/04/25 01:13:55;;;;;;;0.98;0.52;;;;;;;;;;5073715;28;20028;-60
2022/04/25 01:16:24;;;;;;;11.38;3.15;;;;;;;;;;5074039;28;20051;-61
2022/04/25 01:18:52;;;;;;;5.32;1.85;;;;;;;;;;5056178;28;20044;-61
2022/04/25 01:21:20;;;;;;;1.50;1.40;;;;;;;;;;5073313;28;20090;-61
2022/04/25 01:29:14;;;;;;;0.73;0.73;;;;;;;;;;5055468;28;20043;-61
2022/04/25 01:31:40;;;;;;;0.43;0.43;;;;;;;;;;5073304;28;20037;-60
2022/04/25 01:34:06;;;;;;;5.22;1.73;;;;;;;;;;5038775;28;20039;-61
2022/04/25 01:36:31;;;;;;;0.65;0.60;;;;;;;;;;5072971;28;20033;-60
2022/04/25 01:38:57;;;;;;;2.40;1.10;;;;;;;;;;5073762;28;20029;-59
2022/04/25 01:41:23;;;;;;;2.17;0.55;;;;;;;;;;5073562;28;20533;-60
2022/04/25 01:43:48;;;;;;;2.75;1.40;;;;;;;;;;5073618;28;20066;-59
2022/04/25 01:46:14;;;;;;;0.30;0.30;;;;;;;;;;5073211;28;20037;-61
2022/04/25 01:48:39;;;;;;;2.92;0.98;;;;;;;;;;5073078;28;20055;-60
2022/04/25 01:51:05;;;;;;;1.35;1.25;;;;;;;;;;5038299;28;20127;-61
2022/04/25 01:53:30;;;;;;;0.28;0.28;;;;;;;;;;5073422;28;20032;-60
2022/04/25 01:55:56;;;;;;;0.20;0.20;;;;;;;;;;5073379;28;20036;-60
2022/04/25 01:58:21;;;;;;;9.57;2.38;;;;;;;;;;5072983;28;20071;-60
2022/04/25 02:00:47;;;;;;;0.20;0.20;;;;;;;;;;5072942;28;20441;-59
2022/04/25 02:03:13;;;;;;;0.10;0.10;;;;;;;;;;5054867;28;20028;-60
2022/04/25 02:05:39;;;;;;;2.53;0.95;;;;;;;;;;5072692;28;20369;-60
2022/04/25 02:08:04;;;;;;;0.13;0.13;;;;;;;;;;5072724;28;20111;-60
2022/04/25 02:10:30;;;;;;;0.40;0.40;;;;;;;;;;5055164;28;20033;-60
2022/04/25 02:12:55;;;;;;;0.10;0.10;;;;;;;;;;5072732;28;20036;-60
2022/04/25 02:15:21;;;;;;;0.50;0.50;;;;;;;;;;5038183;28;20032;-60
2022/04/25 02:17:46;;;;;;;1.17;0.70;;;;;;;;;;5054838;28;20063;-60
2022/04/25 02:20:12;;;;;;;0.70;0.52;;;;;;;;;;5072815;28;20113;-62
2022/04/25 02:22:38;;;;;;;5.35;1.38;;;;;;;;;;5072420;28;20029;-60
2022/04/25 02:25:04;;;;;;;0.43;0.43;;;;;;;;;;5072606;28;20169;-60
2022/04/25 02:27:29;;;;;;;3.38;0.95;;;;;;;;;;5072944;28;20545;-60
2022/04/25 02:29:58;;;;;;;0.30;0.30;;;;;;;;;;5072518;28;20036;-61
2022/04/25 02:32:27;;;;;;;0.20;0.20;;;;;;;;;;5071604;28;20038;-61
2022/04/25 02:34:56;;;;;;;0.32;0.32;;;;;;;;;;5072166;28;20029;-61
2022/04/25 02:37:22;;;;;;;0.10;0.10;;;;;;;;;;5054985;28;20084;-61
2022/04/25 02:39:48;;;;;;;0.10;0.10;;;;;;;;;;5072556;28;20032;-60
2022/04/25 02:42:14;;;;;;;0.10;0.10;;;;;;;;;;5072799;28;20086;-61
2022/04/25 02:44:39;;;;;;;1.27;0.50;;;;;;;;;;5072388;28;20043;-61
2022/04/25 02:47:05;;;;;;;0.10;0.10;;;;;;;;;;5072582;28;20040;-63
2022/04/25 02:49:30;;;;;;;0.10;0.10;;;;;;;;;;5072182;28;20494;-60
2022/04/25 02:51:56;;;;;;;0.20;0.20;;;;;;;;;;5072044;28;20132;-61
2022/04/25 02:54:22;;;;;;;0.20;0.20;;;;;;;;;;5072120;28;20071;-60
2022/04/25 02:56:48;;;;;;;0.70;0.40;;;;;;;;;;5072162;28;20032;-60
2022/04/25 02:59:14;;;;;;;0.10;0.10;;;;;;;;;;5072165;28;20029;-60
2022/04/25 03:01:40;;;;;;;0.10;0.10;;;;;;;;;;5071546;28;20032;-60
2022/04/25 03:04:06;;;;;;;0.10;0.10;;;;;;;;;;5067264;28;20064;-65
2022/04/25 03:06:31;;;;;;;0.10;0.10;;;;;;;;;;5067956;28;20083;-60
2022/04/25 03:08:57;;;;;;;0.10;0.10;;;;;;;;;;5050218;28;20476;-60
2022/04/25 03:11:22;;;;;;;0.20;0.20;;;;;;;;;;5049879;28;20491;-62
2022/04/25 03:13:49;;;;;;;0.20;0.20;;;;;;;;;;5067616;28;20373;-62
2022/04/25 03:16:15;;;;;;;0.20;0.20;;;;;;;;;;5067180;28;20040;-61
2022/04/25 03:18:40;;;;;;;0.10;0.10;;;;;;;;;;5067352;28;20032;-62
2022/04/25 03:21:06;;;;;;;0.10;0.10;;;;;;;;;;5067372;28;20039;-61
2022/04/25 03:23:31;;;;;;;0.20;0.20;;;;;;;;;;5067953;28;20039;-61
2022/04/25 03:25:57;;;;;;;0.10;0.10;;;;;;;;;;5067477;28;20040;-60
2022/04/25 03:28:23;;;;;;;0.17;0.17;;;;;;;;;;5050099;28;20150;-61
2022/04/25 03:30:49;;;;;;;0.10;0.10;;;;;;;;;;5067569;28;20044;-60
2022/04/25 03:33:15;;;;;;;0.10;0.10;;;;;;;;;;5049413;28;20035;-60
2022/04/25 03:35:41;;;;;;;0.10;0.10;;;;;;;;;;5049464;28;20081;-61
2022/04/25 03:38:07;;;;;;;0.20;0.20;;;;;;;;;;5067347;28;20028;-61
2022/04/25 03:40:36;;;;;;;0.15;0.15;;;;;;;;;;5049532;28;20366;-60
2022/04/25 03:43:02;;;;;;;0.17;0.17;;;;;;;;;;5067006;28;20491;-61
2022/04/25 03:45:29;;;;;;;0.10;0.10;;;;;;;;;;5052522;28;20031;-60
2022/04/25 03:47:54;;;;;;;0.10;0.10;;;;;;;;;;5070443;28;20563;-60
2022/04/25 03:50:20;;;;;;;0.10;0.10;;;;;;;;;;5070231;28;20112;-60
2022/04/25 03:52:46;;;;;;;0.10;0.10;;;;;;;;;;5070566;28;20143;-60
2022/04/25 03:58:00;;;;;;;0.10;0.10;;;;;;;;;;5089765;28;20111;-60
2022/04/25 04:00:26;;;;;;;0.10;0.10;;;;;;;;;;5087398;28;20032;-61
2022/04/25 04:02:52;;;;;;;0.10;0.10;;;;;;;;;;5070296;28;20032;-62
2022/04/25 04:05:18;;;;;;;0.82;0.82;;;;;;;;;;5052637;28;20040;-60
2022/04/25 04:07:44;;;;;;;0.20;0.20;;;;;;;;;;5070349;28;20032;-61
2022/04/25 04:10:10;;;;;;;0.17;0.17;;;;;;;;;;5052042;28;20515;-61
2022/04/25 04:12:35;;;;;;;0.13;0.13;;;;;;;;;;5052584;28;20090;-60
2022/04/25 04:15:12;;;;;;;0.15;0.15;;;;;;;;;;5052101;28;20369;-62
2022/04/25 04:17:37;;;;;;;0.10;0.10;;;;;;;;;;5052144;28;20036;-64
2022/04/25 04:20:03;;;;;;;0.40;0.40;;;;;;;;;;5051580;28;20377;-61
2022/04/25 04:22:29;;;;;;;0.88;0.85;;;;;;;;;;5069868;28;20480;-65
2022/04/25 04:25:07;;;;;;;0.10;0.10;;;;;;;;;;5069786;28;20060;-61
2022/04/25 04:27:33;;;;;;;0.93;0.55;;;;;;;;;;5069805;28;20514;-61
2022/04/25 04:29:58;;;;;;;0.30;0.30;;;;;;;;;;5069808;28;20020;-62
2022/04/25 04:32:29;;;;;;;1.30;1.20;;;;;;;;;;5051808;28;20032;-63
2022/04/25 04:34:55;;;;;;;0.10;0.10;;;;;;;;;;5070233;28;20040;-61
2022/04/25 04:37:20;;;;;;;0.22;0.22;;;;;;;;;;5069830;28;20060;-61
2022/04/25 04:39:46;;;;;;;4.97;2.72;;;;;;;;;;5069525;28;20492;-61
2022/04/25 04:42:11;;;;;;;0.10;0.10;;;;;;;;;;5069351;28;20067;-62
2022/04/25 04:44:37;;;;;;;0.75;0.65;;;;;;;;;;5069483;28;20032;-61
2022/04/25 04:47:03;;;;;;;0.20;0.20;;;;;;;;;;5065193;28;20052;-61
2022/04/25 04:49:28;;;;;;;0.10;0.10;;;;;;;;;;5085917;28;20103;-61
2022/04/25 04:51:54;;;;;;;20.13;0.68;;;;;;;;;;5051435;28;20564;-61
2022/04/25 04:54:20;;;;;;;17.88;0.85;;;;;;;;;;5051299;28;20033;-61
2022/04/25 04:56:46;;;;;;;0.10;0.10;;;;;;;;;;5068881;28;20029;-60
2022/04/25 04:59:11;;;;;;;0.10;0.10;;;;;;;;;;5051746;28;20040;-62
2022/04/25 05:01:38;;;;;;;0.30;0.30;;;;;;;;;;5080629;28;20065;-60
2022/04/25 05:04:04;;;;;;;4.28;1.50;;;;;;;;;;5086185;28;20033;-62
2022/04/25 05:06:29;;;;;;;0.52;0.40;;;;;;;;;;5050997;28;20549;-61
2022/04/25 05:08:55;;;;;;;0.20;0.20;;;;;;;;;;5069304;28;20043;-61
2022/04/25 05:11:21;;;;;;;0.65;0.30;;;;;;;;;;5069180;28;20094;-61
2022/04/25 05:13:47;;;;;;;0.10;0.10;;;;;;;;;;5069200;28;20036;-62
2022/04/25 05:16:12;;;;;;;0.17;0.17;;;;;;;;;;5069618;28;20037;-65
2022/04/25 05:18:38;;;;;;;0.20;0.20;;;;;;;;;;5070389;28;20407;-61
2022/04/25 05:21:04;;;;;;;0.10;0.10;;;;;;;;;;5051135;28;20475;-62
2022/04/25 05:23:30;;;;;;;0.60;0.60;;;;;;;;;;5086527;28;20036;-63
2022/04/25 05:25:56;;;;;;;0.20;0.20;;;;;;;;;;5072279;28;20078;-60
2022/04/25 05:28:22;;;;;;;0.20;0.20;;;;;;;;;;5052335;28;20538;-62
2022/04/25 05:30:48;;;;;;;0.10;0.10;;;;;;;;;;5034687;28;20744;-61
2022/04/25 05:33:16;;;;;;;0.10;0.10;;;;;;;;;;5069041;28;20044;-61
2022/04/25 05:35:41;;;;;;;0.20;0.20;;;;;;;;;;5069084;28;20106;-62
2022/04/25 05:38:07;;;;;;;0.20;0.20;;;;;;;;;;5051278;28;20559;-63
2022/04/25 05:40:32;;;;;;;0.10;0.10;;;;;;;;;;5069044;28;20082;-61
2022/04/25 05:42:58;;;;;;;0.10;0.10;;;;;;;;;;5069278;28;20086;-62
2022/04/25 05:45:24;;;;;;;0.20;0.20;;;;;;;;;;5069140;28;20044;-61
2022/04/25 05:47:57;;;;;;;0.10;0.10;;;;;;;;;;5068862;28;20464;-61
2022/04/25 05:53:16;;;;;;;0.20;0.20;;;;;;;;;;5043720;28;20080;-62
2022/04/25 05:55:44;;;;;;;0.20;0.20;;;;;;;;;;5057613;28;20403;-63
2022/04/25 05:58:10;;;;;;;0.10;0.10;;;;;;;;;;5050523;28;20039;-61
2022/04/25 06:00:35;;;;;;;0.20;0.20;;;;;;;;;;5069714;28;20025;-61
2022/04/25 06:03:01;;;;;;;0.10;0.10;;;;;;;;;;5068911;28;20086;-61
2022/04/25 06:05:27;;;;;;;0.10;0.10;;;;;;;;;;5068492;28;20082;-61
2022/04/25 06:07:53;;;;;;;0.20;0.20;;;;;;;;;;5067385;28;20032;-61
2022/04/25 06:10:19;;;;;;;0.15;0.15;;;;;;;;;;5051529;28;20056;-61
2022/04/25 06:12:47;;;;;;;0.10;0.10;;;;;;;;;;5050402;28;20541;-65
2022/04/25 06:15:13;;;;;;;0.10;0.10;;;;;;;;;;5068506;28;20086;-61
2022/04/25 06:17:38;;;;;;;0.10;0.10;;;;;;;;;;5067965;28;20495;-63
2022/04/25 06:20:04;;;;;;;0.10;0.10;;;;;;;;;;5050701;28;20064;-62
2022/04/25 06:22:30;;;;;;;0.20;0.20;;;;;;;;;;5033776;28;20468;-61
2022/04/25 06:24:55;;;;;;;0.20;0.20;;;;;;;;;;5050075;28;20051;-61
2022/04/25 06:27:21;;;;;;;0.10;0.10;;;;;;;;;;5050634;28;20067;-62
2022/04/25 06:29:46;;;;;;;0.30;0.30;;;;;;;;;;5068423;28;20560;-61
2022/04/25 06:32:13;;;;;;;0.20;0.20;;;;;;;;;;5067805;28;20048;-66
2022/04/25 06:34:39;;;;;;;0.15;0.15;;;;;;;;;;5050304;28;20032;-61
2022/04/25 06:37:05;;;;;;;0.40;0.40;;;;;;;;;;5068080;28;20123;-61
2022/04/25 06:39:31;;;;;;;0.20;0.20;;;;;;;;;;5058422;28;20545;-63
2022/04/25 06:41:56;;;;;;;0.28;0.28;;;;;;;;;;5068212;28;20028;-61
2022/04/25 06:44:22;;;;;;;0.20;0.20;;;;;;;;;;5049739;28;20150;-61
2022/04/25 06:46:49;;;;;;;0.20;0.20;;;;;;;;;;5050508;28;20051;-62
2022/04/25 06:49:21;;;;;;;0.25;0.25;;;;;;;;;;5050733;28;20024;-60
2022/04/25 06:51:47;;;;;;;0.17;0.17;;;;;;;;;;5050218;28;20115;-61
2022/04/25 06:54:13;;;;;;;0.30;0.30;;;;;;;;;;5067731;28;20033;-63
2022/04/25 06:56:39;;;;;;;0.13;0.13;;;;;;;;;;5050649;28;20082;-61
2022/04/25 06:59:05;;;;;;;0.10;0.10;;;;;;;;;;5049993;28;20036;-61
2022/04/25 07:01:30;;;;;;;0.20;0.20;;;;;;;;;;5071462;28;20196;-61
2022/04/25 07:03:56;;;;;;;0.17;0.17;;;;;;;;;;5079123;28;20029;-61
2022/04/25 07:06:21;;;;;;;0.20;0.20;;;;;;;;;;5067140;28;20037;-62
2022/04/25 07:08:46;;;;;;;0.20;0.20;;;;;;;;;;5049804;28;20056;-62
2022/04/25 07:11:12;;;;;;;0.10;0.10;;;;;;;;;;5055350;28;20032;-61
2022/04/25 07:13:41;;;;;;;0.10;0.10;;;;;;;;;;5061735;28;20032;-61
2022/04/25 07:16:07;;;;;;;;;;;;;;;;;;5088021;28;20036;-65
2022/04/25 07:18:32;;;;;;;0.35;0.35;;;;;;;;;;5088217;28;19919;-62
2022/04/25 07:20:58;;;;;;;0.17;0.17;;;;;;;;;;5089290;28;20081;-60
2022/04/25 07:28:57;;;;;;;1.75;0.60;;;;;;;;;;5078286;28;20036;-61
2022/04/25 07:31:23;;;;;;;0.20;0.20;;;;;;;;;;5078721;28;20028;-60
2022/04/25 07:33:49;;;;;;;0.30;0.30;;;;;;;;;;5057532;28;20074;-62
2022/04/25 07:36:15;;;;;;;0.20;0.20;;;;;;;;;;5069311;28;20127;-62
2022/04/25 07:38:40;;;;;;;0.20;0.20;;;;;;;;;;5070793;28;20037;-65
2022/04/25 07:41:07;;;;;;;7.50;3.42;;;;;;;;;;5070867;28;20435;-62
2022/04/25 07:43:34;;;;;;;0.40;0.40;;;;;;;;;;5070930;28;20029;-61
2022/04/25 07:46:00;;;;;;;0.20;0.20;;;;;;;;;;5070761;28;20450;-61
2022/04/25 07:48:25;;;;;;;0.20;0.20;;;;;;;;;;5070157;28;20029;-61
2022/04/25 07:50:51;;;;;;;0.20;0.20;;;;;;;;;;5070780;28;20424;-61
2022/04/25 07:53:16;;;;;;;0.20;0.20;;;;;;;;;;5070786;28;20052;-61
2022/04/25 07:55:42;;;;;;;0.30;0.30;;;;;;;;;;5052667;28;20041;-60
2022/04/25 07:58:08;;;;;;;2.17;0.40;;;;;;;;;;5070229;28;20411;-60
2022/04/25 08:00:35;;;;;;;0.52;0.52;;;;;;;;;;5052698;28;20066;-62
2022/04/25 08:03:01;;;;;;;0.10;0.10;;;;;;;;;;5070462;28;20557;-63
2022/04/25 08:05:26;;;;;;;0.52;0.52;;;;;;;;;;5087041;28;20546;-60
2022/04/25 08:07:52;;;;;;;0.15;0.15;;;;;;;;;;5086383;28;20031;-61
2022/04/25 08:10:17;;;;;;;0.35;0.35;;;;;;;;;;5070720;28;20472;-60
2022/04/25 08:18:13;;;;;;;2.13;0.45;;;;;;;;;;5078709;28;20083;-62
2022/04/25 08:20:39;;;;;;;0.22;0.22;;;;;;;;;;5081051;28;20032;-60
2022/04/25 08:23:08;;;;;;;0.40;0.40;;;;;;;;;;5077737;28;20551;-64
2022/04/25 08:25:33;;;;;;;0.20;0.20;;;;;;;;;;5072261;28;20028;-61
2022/04/25 08:27:59;;;;;;;0.20;0.20;;;;;;;;;;5081475;28;20093;-61
2022/04/25 08:30:25;;;;;;;0.55;0.52;;;;;;;;;;5086529;28;20071;-61
2022/04/25 08:32:51;;;;;;;0.40;0.40;;;;;;;;;;5081765;28;20182;-60
2022/04/25 08:35:17;;;;;;;0.20;0.20;;;;;;;;;;5070413;28;20071;-61
2022/04/25 08:37:42;;;;;;;0.40;0.40;;;;;;;;;;5068160;28;20040;-61
2022/04/25 08:40:08;;;;;;;0.38;0.38;;;;;;;;;;5076942;28;20137;-62
2022/04/25 08:42:35;;;;;;;0.20;0.20;;;;;;;;;;5057549;28;20043;-61
2022/04/25 08:45:02;;;;;;;0.80;0.55;;;;;;;;;;5080674;28;20047;-61
2022/04/25 08:47:29;;;;;;;0.30;0.30;;;;;;;;;;5069769;28;20044;-61
2022/04/25 08:49:57;;;;;;;0.20;0.20;;;;;;;;;;5069648;28;20487;-61
2022/04/25 08:52:23;;;;;;;0.25;0.25;;;;;;;;;;5078578;28;20525;-62
2022/04/25 08:54:49;;;;;;;5.57;0.88;;;;;;;;;;5072774;28;20078;-61
2022/04/25 08:57:16;;;;;;;0.30;0.30;;;;;;;;;;5079632;28;20034;-60
2022/04/25 08:59:42;;;;;;;0.20;0.20;;;;;;;;;;5069036;28;20036;-61
2022/04/25 09:02:08;;;;;;;1.50;1.40;;;;;;;;;;5078029;28;20472;-62
2022/04/25 09:04:34;;;;;;;0.22;0.22;;;;;;;;;;5089984;28;20054;-62
2022/04/25 09:06:59;;;;;;;0.30;0.28;;;;;;;;;;5088085;28;20467;-62
2022/04/25 09:09:25;;;;;;;2.72;0.85;;;;;;;;;;5051348;28;20033;-61
2022/04/25 09:12:09;;;;;;;0.30;0.30;;;;;;;;;;5069122;28;20472;-61
2022/04/25 09:14:35;;;;;;;0.28;0.28;;;;;;;;;;5071770;28;20119;-61
2022/04/25 09:17:03;;;;;;;0.20;0.20;;;;;;;;;;5055653;28;20044;-61
2022/04/25 09:19:32;;;;;;;0.30;0.30;;;;;;;;;;5074150;28;20024;-60
2022/04/25 09:21:58;;;;;;;0.27;0.27;;;;;;;;;;5080266;28;20033;-66
2022/04/25 09:24:31;;;;;;;4.78;1.20;;;;;;;;;;5075294;28;20063;-64
2022/04/25 09:27:18;;;;;;;1.20;1.15;;;;;;;;;;5068977;28;20487;-65
2022/04/25 09:29:43;;;;;;;0.30;0.30;;;;;;;;;;5068853;28;20051;-65
2022/04/25 09:32:09;;;;;;;0.20;0.20;;;;;;;;;;5069022;28;20028;-65
2022/04/25 09:37:20;;;;;;;0.22;0.22;;;;;;;;;;5067058;28;20071;-67
2022/04/25 09:39:45;;;;;;;0.20;0.20;;;;;;;;;;5049332;28;20024;-66
2022/04/25 09:42:11;;;;;;;1.95;0.90;;;;;;;;;;5065725;28;20032;-67
2022/04/25 09:44:56;;;;;;;2.42;0.77;;;;;;;;;;5066412;28;20392;-66
2022/04/25 09:47:24;;;;;;;0.95;0.50;;;;;;;;;;5066854;28;20036;-65
2022/04/25 09:50:00;;;;;;;3.13;1.15;;;;;;;;;;5066251;28;20040;-66
2022/04/25 09:52:26;;;;;;;0.80;0.52;;;;;;;;;;5066436;28;20358;-67
2022/04/25 09:54:52;;;;;;;0.20;0.20;;;;;;;;;;5056272;28;20081;-65
2022/04/25 09:57:30;;;;;;;0.20;0.20;;;;;;;;;;5066668;28;20032;-66
2022/04/25 09:59:59;;;;;;;0.50;0.50;;;;;;;;;;5066817;28;20044;-67
2022/04/25 10:02:25;;;;;;;0.20;0.20;;;;;;;;;;5065455;28;20036;-67
2022/04/25 10:04:50;;;;;;;2.38;0.60;;;;;;;;;;5066477;28;20039;-66
2022/04/25 10:07:17;;;;;;;0.52;0.52;;;;;;;;;;5066779;28;20143;-66
2022/04/25 10:09:43;;;;;;;1.23;0.35;;;;;;;;;;5067737;28;20115;-64
2022/04/25 10:12:10;;;;;;;0.40;0.25;;;;;;;;;;5072270;28;20036;-64
2022/04/25 10:14:36;;;;;;;0.43;0.38;;;;;;;;;;5081141;28;20384;-63
2022/04/25 10:17:02;;;;;;;3.35;1.45;;;;;;;;;;5065296;28;20032;-65
2022/04/25 10:19:30;;;;;;;2.97;1.75;;;;;;;;;;5076947;28;20024;-62
2022/04/25 10:21:58;;;;;;;0.55;0.40;;;;;;;;;;5085037;28;20039;-64
2022/04/25 10:24:24;;;;;;;2.10;0.77;;;;;;;;;;5084038;28;20122;-64
2022/04/25 10:26:50;;;;;;;0.57;0.57;;;;;;;;;;5083284;28;20146;-64
2022/04/25 10:29:27;;;;;;;1.27;1.02;;;;;;;;;;5083281;28;20040;-65
2022/04/25 10:31:58;;;;;;;0.20;0.20;;;;;;;;;;5082979;28;20055;-64
2022/04/25 10:34:43;;;;;;;2.15;0.77;;;;;;;;;;5083920;28;20043;-61
2022/04/25 10:37:29;;;;;;;4.43;1.23;;;;;;;;;;5085954;28;20062;-63
2022/04/25 10:39:55;;;;;;;0.60;0.60;;;;;;;;;;5086824;28;20144;-65
2022/04/25 10:45:04;;;;;;;4.80;1.42;;;;;;;;;;5085258;28;20040;-66
2022/04/25 10:47:30;;;;;;;4.28;0.63;;;;;;;;;;5085924;28;20032;-65
2022/04/25 10:49:56;;;;;;;3.53;1.58;;;;;;;;;;5085851;28;20024;-63
2022/04/25 10:52:34;;;;;;;2.92;1.15;;;;;;;;;;5085888;28;20036;-64
2022/04/25 10:55:23;;;;;;;0.68;0.68;;;;;;;;;;5091871;28;20035;-66
2022/04/25 10:58:04;;;;;;;4.78;1.58;;;;;;;;;;5092561;28;20028;-63
2022/04/25 11:00:42;;;;;;;0.73;0.73;;;;;;;;;;5074629;28;20396;-65
2022/04/25 11:03:19;;;;;;;0.20;0.20;;;;;;;;;;5092800;28;20043;-64
2022/04/25 11:05:45;;;;;;;0.25;0.25;;;;;;;;;;5092545;28;20145;-65
2022/04/25 11:08:20;;;;;;;3.60;0.82;;;;;;;;;;5092091;28;20028;-63
2022/04/25 11:10:49;;;;;;;3.60;1.70;;;;;;;;;;5092799;28;20403;-64
2022/04/25 11:13:18;;;;;;;0.93;0.93;;;;;;;;;;5092466;28;20108;-65
2022/04/25 11:15:44;;;;;;;4.33;1.70;;;;;;;;;;5092607;28;20044;-66
2022/04/25 11:20:58;;;;;;;4.22;0.93;;;;;;;;;;5092030;28;20033;-66
2022/04/25 11:23:26;;;;;;;0.20;0.20;;;;;;;;;;5092885;28;20133;-65
2022/04/25 11:25:53;;;;;;;0.30;0.30;;;;;;;;;;5092488;28;20036;-66
2022/04/25 11:28:19;;;;;;;0.30;0.30;;;;;;;;;;5091918;28;20515;-65
2022/04/25 11:30:44;;;;;;;1.30;0.45;;;;;;;;;;5092612;28;20036;-65
2022/04/25 11:33:11;;;;;;;0.30;0.30;;;;;;;;;;5091654;28;20115;-66
2022/04/25 11:35:39;;;;;;;0.60;0.60;;;;;;;;;;5092331;28;20480;-66
2022/04/25 11:38:05;;;;;;;0.38;0.38;;;;;;;;;;5092320;28;20050;-66
2022/04/25 11:40:30;;;;;;;5.60;1.27;;;;;;;;;;5091878;28;20032;-65
2022/04/25 11:42:59;;;;;;;3.67;1.67;;;;;;;;;;5092359;28;20032;-65
2022/04/25 11:45:25;;;;;;;0.30;0.30;;;;;;;;;;5073132;28;20555;-64
2022/04/25 11:47:51;;;;;;;1.15;1.05;;;;;;;;;;5092737;28;20020;-66
2022/04/25 11:50:19;;;;;;;5.38;1.17;;;;;;;;;;5093779;28;20429;-66
2022/04/25 11:52:46;;;;;;;5.03;0.68;;;;;;;;;;5093974;28;20036;-64
2022/04/25 11:55:12;;;;;;;0.40;0.40;;;;;;;;;;5093995;28;20111;-66
2022/04/25 11:57:38;;;;;;;1.77;1.00;;;;;;;;;;5093785;28;20160;-62
2022/04/25 12:00:05;;;;;;;2.30;1.33;;;;;;;;;;5094059;28;20028;-64
2022/04/25 12:02:37;;;;;;;0.30;0.30;;;;;;;;;;5093975;28;20047;-64
2022/04/25 12:05:04;;;;;;;0.40;0.40;;;;;;;;;;5074162;28;20032;-65
2022/04/25 12:07:30;;;;;;;1.40;0.65;;;;;;;;;;5070807;28;20551;-66
2022/04/25 12:18:11;;;;;;;5.47;1.08;;;;;;;;;;5058138;28;20111;-64
2022/04/25 12:20:39;;;;;;;3.00;1.55;;;;;;;;;;5088532;28;20126;-65
2022/04/25 12:23:04;;;;;;;0.38;0.38;;;;;;;;;;5076718;28;20040;-65
2022/04/25 12:25:30;;;;;;;0.40;0.40;;;;;;;;;;5075541;28;20074;-65
2022/04/25 12:28:01;;;;;;;0.40;0.40;;;;;;;;;;5070869;28;20089;-63
2022/04/25 12:30:28;;;;;;;0.30;0.30;;;;;;;;;;5069299;28;20444;-65
2022/04/25 12:33:13;;;;;;;0.30;0.30;;;;;;;;;;5068349;28;20119;-63
2022/04/25 12:35:39;;;;;;;0.35;0.35;;;;;;;;;;5066650;28;20070;-64
2022/04/25 12:38:04;;;;;;;0.30;0.30;;;;;;;;;;5067053;28;20036;-65
2022/04/25 12:40:31;;;;;;;0.50;0.50;;;;;;;;;;5067201;28;20501;-64
2022/04/25 12:42:56;;;;;;;2.03;1.42;;;;;;;;;;5067603;28;20128;-64
2022/04/25 12:45:22;;;;;;;3.88;1.40;;;;;;;;;;5067508;28;20120;-62
2022/04/25 12:47:58;;;;;;;0.30;0.30;;;;;;;;;;5067847;28;20151;-63
2022/04/25 12:50:39;;;;;;;1.83;1.13;;;;;;;;;;5067278;28;20060;-63
2022/04/25 12:53:06;;;;;;;0.73;0.68;;;;;;;;;;5067735;28;20047;-62
2022/04/25 12:55:41;;;;;;;0.25;0.25;;;;;;;;;;5067743;28;20059;-64
2022/04/25 12:58:07;;;;;;;1.85;1.75;;;;;;;;;;5051057;28;20037;-65
2022/04/25 13:00:47;;;;;;;1.02;1.02;;;;;;;;;;5069759;28;20035;-65
2022/04/25 13:03:13;;;;;;;2.38;0.40;;;;;;;;;;5051504;28;20373;-65
2022/04/25 13:05:39;;;;;;;0.40;0.40;;;;;;;;;;5069404;28;20032;-65
2022/04/25 13:08:04;;;;;;;0.50;0.50;;;;;;;;;;5069699;28;20043;-64
2022/04/25 13:10:30;;;;;;;0.50;0.50;;;;;;;;;;5069328;28;20043;-64
2022/04/25 13:12:56;;;;;;;0.40;0.40;;;;;;;;;;5069448;28;20028;-65
2022/04/25 13:15:22;;;;;;;2.63;1.73;;;;;;;;;;5069328;28;20398;-64
2022/04/25 13:17:49;;;;;;;1.20;0.60;;;;;;;;;;5068607;28;20062;-64
2022/04/25 13:20:15;;;;;;;0.50;0.50;;;;;;;;;;5069227;28;20419;-64
2022/04/25 13:22:44;;;;;;;0.30;0.30;;;;;;;;;;5069347;28;20090;-64
2022/04/25 13:25:10;;;;;;;0.35;0.35;;;;;;;;;;5069197;28;20040;-65
2022/04/25 13:27:36;;;;;;;0.30;0.30;;;;;;;;;;5069170;28;20128;-64
2022/04/25 13:30:05;;;;;;;0.40;0.40;;;;;;;;;;5069316;28;20446;-64
2022/04/25 13:32:34;;;;;;;0.40;0.40;;;;;;;;;;5069114;28;20047;-64
2022/04/25 13:34:59;;;;;;;0.30;0.30;;;;;;;;;;5068942;28;20039;-65
2022/04/25 13:37:25;;;;;;;2.40;1.23;;;;;;;;;;5068949;28;20040;-62
2022/04/25 13:39:51;;;;;;;0.30;0.30;;;;;;;;;;5069096;28;20032;-64
2022/04/25 13:42:17;;;;;;;0.30;0.30;;;;;;;;;;5068817;28;20545;-64
2022/04/25 13:44:42;;;;;;;0.88;0.70;;;;;;;;;;5068802;28;20060;-62
2022/04/25 13:47:08;;;;;;;0.30;0.30;;;;;;;;;;5068947;28;20044;-61
2022/04/25 13:49:33;;;;;;;0.20;0.20;;;;;;;;;;5069047;28;20025;-64
2022/04/25 13:52:01;;;;;;;0.57;0.57;;;;;;;;;;5051363;28;20055;-66
2022/04/25 13:54:27;;;;;;;0.20;0.20;;;;;;;;;;5068157;28;20040;-62
2022/04/25 13:56:52;;;;;;;0.20;0.20;;;;;;;;;;5068729;28;20029;-62
2022/04/25 13:59:18;;;;;;;0.60;0.60;;;;;;;;;;5068790;28;20120;-65
2022/04/25 14:01:43;;;;;;;0.30;0.30;;;;;;;;;;5068748;28;20038;-64
2022/04/25 14:04:08;;;;;;;0.20;0.20;;;;;;;;;;5068469;28;20446;-65
2022/04/25 14:06:34;;;;;;;0.90;0.75;;;;;;;;;;5068736;28;20115;-65
2022/04/25 14:09:01;;;;;;;0.30;0.30;;;;;;;;;;5068479;28;20037;-64
2022/04/25 14:11:29;;;;;;;0.47;0.47;;;;;;;;;;5068545;28;20034;-64
2022/04/25 14:13:56;;;;;;;0.30;0.30;;;;;;;;;;5068619;28;20028;-65
2022/04/25 14:16:21;;;;;;;0.30;0.30;;;;;;;;;;5068210;28;20037;-64
2022/04/25 14:18:47;;;;;;;0.30;0.30;;;;;;;;;;5068466;28;20020;-65
2022/04/25 14:21:12;;;;;;;0.73;0.60;;;;;;;;;;5068229;28;20066;-63
2022/04/25 14:23:38;;;;;;;0.40;0.40;;;;;;;;;;5068410;28;20074;-65
2022/04/25 14:26:04;;;;;;;0.38;0.38;;;;;;;;;;5068173;28;20040;-63
2022/04/25 14:28:30;;;;;;;0.30;0.30;;;;;;;;;;5067138;28;20032;-63
2022/04/25 14:30:55;;;;;;;0.38;0.38;;;;;;;;;;5068395;28;20495;-63
2022/04/25 14:33:22;;;;;;;2.85;1.27;;;;;;;;;;5068212;28;20036;-61
2022/04/25 14:35:47;;;;;;;0.30;0.30;;;;;;;;;;5068063;28;20095;-65
2022/04/25 14:38:14;;;;;;;0.38;0.38;;;;;;;;;;5067784;28;20040;-64
2022/04/25 14:40:39;;;;;;;0.50;0.50;;;;;;;;;;5068026;28;20233;-63
2022/04/25 14:43:06;;;;;;;0.40;0.40;;;;;;;;;;5068333;28;20526;-62
2022/04/25 14:45:33;;;;;;;3.20;0.93;;;;;;;;;;5050157;28;20033;-64
2022/04/25 14:47:59;;;;;;;0.20;0.20;;;;;;;;;;5067903;28;20040;-63
2022/04/25 14:55:52;;;;;;;0.63;0.60;;;;;;;;;;5067959;28;20056;-64
2022/04/25 14:58:18;;;;;;;0.40;0.40;;;;;;;;;;5067475;28;20049;-64
2022/04/25 15:00:44;;;;;;;1.73;0.90;;;;;;;;;;5067955;28;20035;-62
2022/04/25 15:03:09;;;;;;;0.20;0.20;;;;;;;;;;5067822;28;20049;-65
2022/04/25 15:05:38;;;;;;;0.40;0.40;;;;;;;;;;5067469;28;20068;-65
2022/04/25 15:08:04;;;;;;;5.82;0.57;;;;;;;;;;5050259;28;20064;-64
2022/04/25 15:10:30;;;;;;;1.15;1.05;;;;;;;;;;5067403;28;20053;-64
2022/04/25 15:12:55;;;;;;;0.22;0.22;;;;;;;;;;5067730;28;20029;-64
2022/04/25 15:15:20;;;;;;;0.30;0.30;;;;;;;;;;5059350;28;20086;-67
2022/04/25 15:17:49;;;;;;;4.63;1.23;;;;;;;;;;5086880;28;20200;-67
2022/04/25 15:20:14;;;;;;;4.38;1.10;;;;;;;;;;5086837;28;20095;-66
2022/04/25 15:22:40;;;;;;;0.20;0.20;;;;;;;;;;5069278;28;20440;-66
2022/04/25 15:25:05;;;;;;;0.63;0.40;;;;;;;;;;5069285;28;20040;-63
2022/04/25 15:27:33;;;;;;;3.47;1.20;;;;;;;;;;5087216;28;20372;-63